createdAt,value
2018-12-08T00:00:40.156Z,990.45
2018-12-08T00:01:40.141Z,990.37
2018-12-08T00:02:40.130Z,990.40
2018-12-08T00:03:40.116Z,990.14
2018-12-08T00:04:40.104Z,990.34
2018-12-08T00:05:40.094Z,990.41
2018-12-08T00:06:40.076Z,990.43
2018-12-08T00:07:40.067Z,990.44
2018-12-08T00:08:40.051Z,990.45
2018-12-08T00:09:40.037Z,990.39
2018-12-08T00:10:40.025Z,990.45
2018-12-08T00:11:40.020Z,990.46
2018-12-08T00:12:40.005Z,990.37
2018-12-08T00:13:39.984Z,990.56
2018-12-08T00:14:39.972Z,990.52
2018-12-08T00:15:39.961Z,990.64
2018-12-08T00:16:39.946Z,990.58
2018-12-08T00:17:39.932Z,990.65
2018-12-08T00:18:39.922Z,990.61
2018-12-08T00:19:39.905Z,990.56
2018-12-08T00:20:39.892Z,990.64
2018-12-08T00:21:39.879Z,990.71
2018-12-08T00:22:39.872Z,990.61
2018-12-08T00:23:39.853Z,990.59
2018-12-08T00:24:39.842Z,990.48
2018-12-08T00:25:39.826Z,990.52
2018-12-08T00:26:39.812Z,990.37
2018-12-08T00:27:39.799Z,990.73
2018-12-08T00:28:39.793Z,990.73
2018-12-08T00:29:39.777Z,990.65
2018-12-08T00:30:39.757Z,990.65
2018-12-08T00:31:39.746Z,990.68
2018-12-08T00:32:39.730Z,990.68
2018-12-08T00:33:39.719Z,990.69
2018-12-08T00:34:39.703Z,990.67
2018-12-08T00:35:39.694Z,990.54
2018-12-08T00:36:39.676Z,990.65
2018-12-08T00:37:39.662Z,990.59
2018-12-08T00:38:39.649Z,990.59
2018-12-08T00:39:39.635Z,990.63
2018-12-08T00:40:39.623Z,990.66
2018-12-08T00:41:39.612Z,990.67
2018-12-08T00:42:39.595Z,990.73
2018-12-08T00:43:39.582Z,990.72
2018-12-08T00:44:39.568Z,990.77
2018-12-08T00:45:39.555Z,990.85
2018-12-08T00:46:39.541Z,990.86
2018-12-08T00:47:39.530Z,990.82
2018-12-08T00:48:39.514Z,990.70
2018-12-08T00:49:39.500Z,990.77
2018-12-08T00:50:39.487Z,990.88
2018-12-08T00:51:39.475Z,990.83
2018-12-08T00:52:39.462Z,990.83
2018-12-08T00:53:39.446Z,990.80
2018-12-08T00:54:39.433Z,990.74
2018-12-08T00:55:39.422Z,990.76
2018-12-08T00:56:39.408Z,990.80
2018-12-08T00:57:39.394Z,990.92
2018-12-08T00:58:39.380Z,990.89
2018-12-08T00:59:39.370Z,990.87
2018-12-08T01:00:39.356Z,990.84
2018-12-08T01:01:39.340Z,990.83
2018-12-08T01:02:39.329Z,990.76
2018-12-08T01:04:39.301Z,990.86
2018-12-08T01:05:39.290Z,990.89
2018-12-08T01:06:39.274Z,991.08
2018-12-08T01:07:39.261Z,990.93
2018-12-08T01:08:39.249Z,990.90
2018-12-08T01:09:39.237Z,990.90
2018-12-08T01:10:39.221Z,990.90
2018-12-08T01:11:39.207Z,990.85
2018-12-08T01:12:39.198Z,990.96
2018-12-08T01:13:39.183Z,990.90
2018-12-08T01:14:39.168Z,990.99
2018-12-08T01:15:39.156Z,990.97
2018-12-08T01:16:39.142Z,990.96
2018-12-08T01:17:39.129Z,990.97
2018-12-08T01:18:39.118Z,991.00
2018-12-08T01:19:39.103Z,991.04
2018-12-08T01:20:39.090Z,991.05
2018-12-08T01:21:39.076Z,990.98
2018-12-08T01:22:39.063Z,991.04
2018-12-08T01:23:39.050Z,990.99
2018-12-08T01:24:39.037Z,991.00
2018-12-08T01:25:39.024Z,990.98
2018-12-08T01:26:39.010Z,990.99
2018-12-08T01:27:40.948Z,990.85
2018-12-08T01:28:38.984Z,990.84
2018-12-08T01:29:38.975Z,990.68
2018-12-08T01:30:38.958Z,990.72
2018-12-08T01:31:38.945Z,990.86
2018-12-08T01:32:38.932Z,990.75
2018-12-08T01:33:38.918Z,990.87
2018-12-08T01:34:38.908Z,990.85
2018-12-08T01:35:38.901Z,990.88
2018-12-08T01:36:38.883Z,990.89
2018-12-08T01:37:38.870Z,990.87
2018-12-08T01:38:38.857Z,990.84
2018-12-08T01:39:38.843Z,990.82
2018-12-08T01:40:38.831Z,990.83
2018-12-08T01:41:38.817Z,990.74
2018-12-08T01:42:38.803Z,990.76
2018-12-08T01:43:38.791Z,990.72
2018-12-08T01:44:38.778Z,990.82
2018-12-08T01:45:38.764Z,990.90
2018-12-08T01:46:38.750Z,990.78
2018-12-08T01:47:38.737Z,990.75
2018-12-08T01:48:38.724Z,990.67
2018-12-08T01:49:38.712Z,990.71
2018-12-08T01:50:38.698Z,990.73
2018-12-08T01:51:38.685Z,990.65
2018-12-08T01:52:38.673Z,990.73
2018-12-08T01:53:38.659Z,990.69
2018-12-08T01:54:38.644Z,990.65
2018-12-08T01:55:38.632Z,990.69
2018-12-08T01:56:38.620Z,990.58
2018-12-08T01:57:38.604Z,990.73
2018-12-08T01:58:38.592Z,990.82
2018-12-08T01:59:38.578Z,990.70
2018-12-08T02:00:38.566Z,990.65
2018-12-08T02:01:38.551Z,990.69
2018-12-08T02:02:38.539Z,990.61
2018-12-08T02:03:38.525Z,990.60
2018-12-08T02:04:38.513Z,990.63
2018-12-08T02:05:38.499Z,990.57
2018-12-08T02:06:38.490Z,990.56
2018-12-08T02:07:38.476Z,990.58
2018-12-08T02:08:38.459Z,990.49
2018-12-08T02:09:38.447Z,990.54
2018-12-08T02:10:38.433Z,990.50
2018-12-08T02:11:38.421Z,990.51
2018-12-08T02:12:38.407Z,990.57
2018-12-08T02:13:38.392Z,990.55
2018-12-08T02:14:38.379Z,990.53
2018-12-08T02:15:38.366Z,990.59
2018-12-08T02:16:38.355Z,990.53
2018-12-08T02:17:38.339Z,990.49
2018-12-08T02:18:38.326Z,990.47
2018-12-08T02:19:38.314Z,990.32
2018-12-08T02:20:38.301Z,990.35
2018-12-08T02:21:38.287Z,990.36
2018-12-08T02:22:38.272Z,990.45
2018-12-08T02:23:38.260Z,990.45
2018-12-08T02:24:38.249Z,990.39
2018-12-08T02:25:38.236Z,990.44
2018-12-08T02:26:38.223Z,990.48
2018-12-08T02:27:38.206Z,990.41
2018-12-08T02:28:38.197Z,990.50
2018-12-08T02:29:38.187Z,990.44
2018-12-08T02:30:38.168Z,990.49
2018-12-08T02:31:38.155Z,990.39
2018-12-08T02:32:38.141Z,990.42
2018-12-08T02:33:38.128Z,990.35
2018-12-08T02:34:38.115Z,990.39
2018-12-08T02:35:38.105Z,990.39
2018-12-08T02:36:38.089Z,990.44
2018-12-08T02:37:38.075Z,990.35
2018-12-08T02:38:38.065Z,990.43
2018-12-08T02:39:38.050Z,990.39
2018-12-08T02:40:38.037Z,990.37
2018-12-08T02:41:38.023Z,990.35
2018-12-08T02:42:38.010Z,990.29
2018-12-08T02:43:38.001Z,990.36
2018-12-08T02:44:37.985Z,990.30
2018-12-08T02:45:37.972Z,990.37
2018-12-08T02:46:37.960Z,990.24
2018-12-08T02:47:37.946Z,990.27
2018-12-08T02:48:37.935Z,990.20
2018-12-08T02:49:37.930Z,990.23
2018-12-08T02:50:37.906Z,990.29
2018-12-08T02:51:37.893Z,990.31
2018-12-08T02:52:37.880Z,990.29
2018-12-08T02:53:37.867Z,990.26
2018-12-08T02:54:37.853Z,990.24
2018-12-08T02:55:37.840Z,990.14
2018-12-08T02:56:37.828Z,990.16
2018-12-08T02:57:37.815Z,990.24
2018-12-08T02:58:37.801Z,990.19
2018-12-08T02:59:37.794Z,990.23
2018-12-08T03:00:37.779Z,990.20
2018-12-08T03:01:37.761Z,990.18
2018-12-08T03:02:37.749Z,990.32
2018-12-08T03:03:37.735Z,990.12
2018-12-08T03:04:37.723Z,990.11
2018-12-08T03:05:37.710Z,990.06
2018-12-08T03:06:37.696Z,990.12
2018-12-08T03:07:37.685Z,990.13
2018-12-08T03:08:37.670Z,990.09
2018-12-08T03:09:37.661Z,990.07
2018-12-08T03:10:37.643Z,990.11
2018-12-08T03:11:37.630Z,990.04
2018-12-08T03:12:37.617Z,990.02
2018-12-08T03:13:37.604Z,989.93
2018-12-08T03:14:37.593Z,990.00
2018-12-08T03:15:37.578Z,990.03
2018-12-08T03:16:37.565Z,989.98
2018-12-08T03:17:37.550Z,989.96
2018-12-08T03:18:37.538Z,989.97
2018-12-08T03:19:37.675Z,989.91
2018-12-08T03:20:37.512Z,989.93
2018-12-08T03:21:37.497Z,989.94
2018-12-08T03:22:37.485Z,989.90
2018-12-08T03:23:37.472Z,989.84
2018-12-08T03:24:37.458Z,989.99
2018-12-08T03:25:37.466Z,989.90
2018-12-08T03:26:37.431Z,989.91
2018-12-08T03:27:37.418Z,989.93
2018-12-08T03:28:37.405Z,989.94
2018-12-08T03:29:37.392Z,989.80
2018-12-08T03:30:37.380Z,989.83
2018-12-08T03:31:37.367Z,989.81
2018-12-08T03:32:37.354Z,989.89
2018-12-08T03:33:37.341Z,989.84
2018-12-08T03:34:37.390Z,989.99
2018-12-08T03:35:37.317Z,989.95
2018-12-08T03:36:37.300Z,989.87
2018-12-08T03:37:37.287Z,989.89
2018-12-08T03:38:37.273Z,989.87
2018-12-08T03:39:37.265Z,989.81
2018-12-08T03:40:38.070Z,989.90
2018-12-08T03:41:37.236Z,990.00
2018-12-08T03:42:37.220Z,989.72
2018-12-08T03:43:37.210Z,989.74
2018-12-08T03:44:37.199Z,989.72
2018-12-08T03:45:37.183Z,989.67
2018-12-08T03:46:37.170Z,989.80
2018-12-08T03:47:37.156Z,989.80
2018-12-08T03:48:37.143Z,989.67
2018-12-08T03:49:37.131Z,989.73
2018-12-08T03:50:37.119Z,989.77
2018-12-08T03:51:37.104Z,989.68
2018-12-08T03:52:37.093Z,989.73
2018-12-08T03:53:37.080Z,989.61
2018-12-08T03:54:37.067Z,989.62
2018-12-08T03:55:37.057Z,989.60
2018-12-08T03:56:37.039Z,989.64
2018-12-08T03:57:37.036Z,989.72
2018-12-08T03:58:37.015Z,989.69
2018-12-08T03:59:37.002Z,989.77
2018-12-08T04:00:36.989Z,989.72
2018-12-08T04:01:36.975Z,989.68
2018-12-08T04:02:36.963Z,989.69
2018-12-08T04:03:36.950Z,989.68
2018-12-08T04:04:36.936Z,989.72
2018-12-08T04:05:36.924Z,989.67
2018-12-08T04:06:36.910Z,989.68
2018-12-08T04:07:36.900Z,989.70
2018-12-08T04:08:37.094Z,989.79
2018-12-08T04:09:36.875Z,989.75
2018-12-08T04:10:36.860Z,989.66
2018-12-08T04:11:36.846Z,989.80
2018-12-08T04:12:36.835Z,989.84
2018-12-08T04:13:36.820Z,989.72
2018-12-08T04:14:36.807Z,989.55
2018-12-08T04:15:36.807Z,989.67
2018-12-08T04:16:36.782Z,989.51
2018-12-08T04:17:36.872Z,989.59
2018-12-08T04:18:36.756Z,989.75
2018-12-08T04:19:36.743Z,989.69
2018-12-08T04:20:36.730Z,989.62
2018-12-08T04:21:36.716Z,989.60
2018-12-08T04:22:36.707Z,989.62
2018-12-08T04:23:36.691Z,989.74
2018-12-08T04:24:36.677Z,989.72
2018-12-08T04:25:36.667Z,989.62
2018-12-08T04:26:36.651Z,989.57
2018-12-08T04:27:36.639Z,989.54
2018-12-08T04:28:36.626Z,989.55
2018-12-08T04:29:36.613Z,989.48
2018-12-08T04:30:36.601Z,989.51
2018-12-08T04:31:36.588Z,989.58
2018-12-08T04:32:36.574Z,989.63
2018-12-08T04:33:36.562Z,989.55
2018-12-08T04:34:36.550Z,989.50
2018-12-08T04:35:36.536Z,989.61
2018-12-08T04:36:36.524Z,989.64
2018-12-08T04:37:36.509Z,989.57
2018-12-08T04:38:36.506Z,989.59
2018-12-08T04:39:36.487Z,989.59
2018-12-08T04:40:36.472Z,989.59
2018-12-08T04:41:36.462Z,989.68
2018-12-08T04:42:36.446Z,989.64
2018-12-08T04:43:36.437Z,989.65
2018-12-08T04:44:36.419Z,989.48
2018-12-08T04:45:36.406Z,989.54
2018-12-08T04:46:36.392Z,989.61
2018-12-08T04:47:36.384Z,989.59
2018-12-08T04:48:36.370Z,989.70
2018-12-08T04:49:36.353Z,989.56
2018-12-08T04:50:36.339Z,989.50
2018-12-08T04:51:36.326Z,989.43
2018-12-08T04:52:36.318Z,989.55
2018-12-08T04:53:36.301Z,989.58
2018-12-08T04:54:36.287Z,989.44
2018-12-08T04:55:36.275Z,989.53
2018-12-08T04:56:36.261Z,989.56
2018-12-08T04:57:36.248Z,989.55
2018-12-08T04:58:36.234Z,989.59
2018-12-08T04:59:36.229Z,989.42
2018-12-08T05:00:36.209Z,989.61
2018-12-08T05:01:36.199Z,989.55
2018-12-08T05:02:36.187Z,989.48
2018-12-08T05:03:36.170Z,989.40
2018-12-08T05:04:36.158Z,989.33
2018-12-08T05:05:36.153Z,989.43
2018-12-08T05:06:36.133Z,989.40
2018-12-08T05:07:36.118Z,989.26
2018-12-08T05:08:36.106Z,989.32
2018-12-08T05:09:36.091Z,989.09
2018-12-08T05:10:36.078Z,989.12
2018-12-08T05:11:36.070Z,989.24
2018-12-08T05:12:36.056Z,989.28
2018-12-08T05:13:36.040Z,989.45
2018-12-08T05:14:36.044Z,989.42
2018-12-08T05:15:36.013Z,989.52
2018-12-08T05:16:36.001Z,989.52
2018-12-08T05:17:35.990Z,989.51
2018-12-08T05:18:35.976Z,989.54
2018-12-08T05:19:35.960Z,989.44
2018-12-08T05:20:35.949Z,989.45
2018-12-08T05:21:35.938Z,989.41
2018-12-08T05:22:35.926Z,989.28
2018-12-08T05:23:35.907Z,989.35
2018-12-08T05:24:35.894Z,989.32
2018-12-08T05:25:35.880Z,989.27
2018-12-08T05:26:35.868Z,989.33
2018-12-08T05:27:35.853Z,989.37
2018-12-08T05:28:35.842Z,989.21
2018-12-08T05:29:35.826Z,989.16
2018-12-08T05:30:35.812Z,989.26
2018-12-08T05:31:35.803Z,989.13
2018-12-08T05:32:35.786Z,989.24
2018-12-08T05:33:35.775Z,989.24
2018-12-08T05:34:35.769Z,989.14
2018-12-08T05:35:35.746Z,989.18
2018-12-08T05:36:35.734Z,989.16
2018-12-08T05:37:35.718Z,989.17
2018-12-08T05:38:35.705Z,989.21
2018-12-08T05:39:35.691Z,989.21
2018-12-08T05:40:35.681Z,989.21
2018-12-08T05:41:35.664Z,989.26
2018-12-08T05:42:35.651Z,989.26
2018-12-08T05:43:35.638Z,989.23
2018-12-08T05:44:35.624Z,989.19
2018-12-08T05:45:35.611Z,989.17
2018-12-08T05:46:35.596Z,989.20
2018-12-08T05:47:35.584Z,989.34
2018-12-08T05:48:35.570Z,989.17
2018-12-08T05:49:35.556Z,989.28
2018-12-08T05:50:35.543Z,989.33
2018-12-08T05:51:35.531Z,989.24
2018-12-08T05:52:35.517Z,989.22
2018-12-08T05:53:35.502Z,989.26
2018-12-08T05:54:35.490Z,989.27
2018-12-08T05:55:35.476Z,989.19
2018-12-08T05:56:35.466Z,989.30
2018-12-08T05:57:35.455Z,989.31
2018-12-08T05:58:35.437Z,989.30
2018-12-08T05:59:35.424Z,989.44
2018-12-08T06:00:35.412Z,989.27
2018-12-08T06:01:35.395Z,989.37
2018-12-08T06:02:35.383Z,989.45
2018-12-08T06:03:35.369Z,989.33
2018-12-08T06:04:35.356Z,989.34
2018-12-08T06:05:35.342Z,989.36
2018-12-08T06:06:35.328Z,989.32
2018-12-08T06:07:35.315Z,989.25
2018-12-08T06:08:35.302Z,989.21
2018-12-08T06:09:35.289Z,989.35
2018-12-08T06:10:35.279Z,989.21
2018-12-08T06:11:35.261Z,989.11
2018-12-08T06:12:35.344Z,989.34
2018-12-08T06:13:35.235Z,989.23
2018-12-08T06:14:35.225Z,989.26
2018-12-08T06:15:35.207Z,989.33
2018-12-08T06:16:35.195Z,989.24
2018-12-08T06:17:35.180Z,989.42
2018-12-08T06:18:35.165Z,989.17
2018-12-08T06:19:35.153Z,989.11
2018-12-08T06:20:35.139Z,989.24
2018-12-08T06:21:35.125Z,989.21
2018-12-08T06:22:35.112Z,989.30
2018-12-08T06:23:35.101Z,989.25
2018-12-08T06:24:35.085Z,989.21
2018-12-08T06:25:35.080Z,989.20
2018-12-08T06:26:35.058Z,989.16
2018-12-08T06:27:35.044Z,989.29
2018-12-08T06:28:35.081Z,989.24
2018-12-08T06:29:35.018Z,989.28
2018-12-08T06:30:35.004Z,989.10
2018-12-08T06:31:34.992Z,989.40
2018-12-08T06:32:34.977Z,988.99
2018-12-08T06:33:34.964Z,989.13
2018-12-08T06:34:34.954Z,989.11
2018-12-08T06:35:34.940Z,989.13
2018-12-08T06:36:34.924Z,989.21
2018-12-08T06:37:34.910Z,989.24
2018-12-08T06:38:34.896Z,989.20
2018-12-08T06:39:34.884Z,989.04
2018-12-08T06:40:34.870Z,989.13
2018-12-08T06:41:34.857Z,989.07
2018-12-08T06:42:34.844Z,989.31
2018-12-08T06:43:34.830Z,989.08
2018-12-08T06:44:34.816Z,989.01
2018-12-08T06:45:34.806Z,989.10
2018-12-08T06:46:34.790Z,989.13
2018-12-08T06:47:34.776Z,989.14
2018-12-08T06:48:34.762Z,989.14
2018-12-08T06:49:34.748Z,989.07
2018-12-08T06:50:34.736Z,989.17
2018-12-08T06:51:34.725Z,989.14
2018-12-08T06:52:34.709Z,989.07
2018-12-08T06:53:34.706Z,989.08
2018-12-08T06:54:34.682Z,989.24
2018-12-08T06:55:34.668Z,989.06
2018-12-08T06:56:34.655Z,989.06
2018-12-08T06:57:34.641Z,989.04
2018-12-08T06:58:34.681Z,988.94
2018-12-08T06:59:34.615Z,988.95
2018-12-08T07:00:34.604Z,988.99
2018-12-08T07:01:34.588Z,989.09
2018-12-08T07:02:34.576Z,988.98
2018-12-08T07:03:34.766Z,988.84
2018-12-08T07:04:34.756Z,988.87
2018-12-08T07:05:34.536Z,989.00
2018-12-08T07:06:34.522Z,988.96
2018-12-08T07:07:34.509Z,988.92
2018-12-08T07:08:34.496Z,988.99
2018-12-08T07:09:34.582Z,989.22
2018-12-08T07:10:34.470Z,989.00
2018-12-08T07:11:34.457Z,989.00
2018-12-08T07:12:34.443Z,989.25
2018-12-08T07:13:34.429Z,989.29
2018-12-08T07:14:34.417Z,989.10
2018-12-08T07:15:34.402Z,989.09
2018-12-08T07:16:34.390Z,988.94
2018-12-08T07:17:34.376Z,989.01
2018-12-08T07:18:34.363Z,989.12
2018-12-08T07:19:34.349Z,989.11
2018-12-08T07:20:34.342Z,989.16
2018-12-08T07:21:34.324Z,989.30
2018-12-08T07:22:34.311Z,989.24
2018-12-08T07:23:34.297Z,989.29
2018-12-08T07:24:34.283Z,989.23
2018-12-08T07:25:34.270Z,989.17
2018-12-08T07:26:34.256Z,989.25
2018-12-08T07:27:34.243Z,989.09
2018-12-08T07:28:34.230Z,989.23
2018-12-08T07:29:34.216Z,989.12
2018-12-08T07:30:34.204Z,989.24
2018-12-08T07:31:34.189Z,989.24
2018-12-08T07:32:38.798Z,989.17
2018-12-08T07:33:34.163Z,989.24
2018-12-08T07:34:34.150Z,989.22
2018-12-08T07:35:34.138Z,989.22
2018-12-08T07:36:34.124Z,989.21
2018-12-08T07:37:34.112Z,989.25
2018-12-08T07:38:34.098Z,989.14
2018-12-08T07:39:34.085Z,989.24
2018-12-08T07:40:34.086Z,989.19
2018-12-08T07:41:34.061Z,989.21
2018-12-08T07:42:34.046Z,989.27
2018-12-08T07:43:34.032Z,989.25
2018-12-08T07:44:34.074Z,989.32
2018-12-08T07:45:34.005Z,989.20
2018-12-08T07:46:33.992Z,989.30
2018-12-08T07:47:33.981Z,989.24
2018-12-08T07:48:33.966Z,989.18
2018-12-08T07:49:33.953Z,989.24
2018-12-08T07:50:33.939Z,989.21
2018-12-08T07:51:33.927Z,989.26
2018-12-08T07:52:33.915Z,989.30
2018-12-08T07:53:33.900Z,989.20
2018-12-08T07:54:33.887Z,989.24
2018-12-08T07:55:33.874Z,989.16
2018-12-08T07:56:33.860Z,989.12
2018-12-08T07:57:33.849Z,989.10
2018-12-08T07:58:33.834Z,989.06
2018-12-08T07:59:33.824Z,989.08
2018-12-08T08:00:33.808Z,989.10
2018-12-08T08:01:33.795Z,989.13
2018-12-08T08:02:33.782Z,989.14
2018-12-08T08:03:33.774Z,989.09
2018-12-08T08:04:34.110Z,988.96
2018-12-08T08:05:33.742Z,988.82
2018-12-08T08:06:33.734Z,989.01
2018-12-08T08:07:33.717Z,988.98
2018-12-08T08:08:33.704Z,989.11
2018-12-08T08:09:33.689Z,989.08
2018-12-08T08:10:33.677Z,988.83
2018-12-08T08:11:33.664Z,989.13
2018-12-08T08:12:33.658Z,989.05
2018-12-08T08:13:33.645Z,988.97
2018-12-08T08:14:33.677Z,989.08
2018-12-08T08:15:33.611Z,988.98
2018-12-08T08:16:33.605Z,989.01
2018-12-08T08:17:33.585Z,989.04
2018-12-08T08:18:33.573Z,989.00
2018-12-08T08:19:33.615Z,989.00
2018-12-08T08:20:33.547Z,989.02
2018-12-08T08:21:33.540Z,989.05
2018-12-08T08:22:33.524Z,989.00
2018-12-08T08:23:33.514Z,989.03
2018-12-08T08:24:33.501Z,989.03
2018-12-08T08:25:33.484Z,989.19
2018-12-08T08:26:33.470Z,988.98
2018-12-08T08:27:33.459Z,989.04
2018-12-08T08:28:33.448Z,988.99
2018-12-08T08:29:33.486Z,989.02
2018-12-08T08:30:33.418Z,989.03
2018-12-08T08:31:33.412Z,989.00
2018-12-08T08:32:33.394Z,988.95
2018-12-08T08:33:33.380Z,988.95
2018-12-08T08:34:33.369Z,988.92
2018-12-08T08:35:33.355Z,988.95
2018-12-08T08:36:33.342Z,988.88
2018-12-08T08:37:33.329Z,988.96
2018-12-08T08:38:33.317Z,988.82
2018-12-08T08:39:33.305Z,988.79
2018-12-08T08:40:33.294Z,988.88
2018-12-08T08:41:33.280Z,988.83
2018-12-08T08:42:33.267Z,988.86
2018-12-08T08:43:33.254Z,988.85
2018-12-08T08:44:33.241Z,988.84
2018-12-08T08:45:33.230Z,988.79
2018-12-08T08:46:33.216Z,988.92
2018-12-08T08:47:33.204Z,988.84
2018-12-08T08:48:33.194Z,988.96
2018-12-08T08:49:33.178Z,988.88
2018-12-08T08:50:33.168Z,988.87
2018-12-08T08:51:33.152Z,988.75
2018-12-08T08:52:33.149Z,988.71
2018-12-08T08:53:33.126Z,988.64
2018-12-08T08:54:33.163Z,988.67
2018-12-08T08:55:33.104Z,988.72
2018-12-08T08:56:33.095Z,988.79
2018-12-08T08:57:33.077Z,988.71
2018-12-08T08:58:33.065Z,988.63
2018-12-08T08:59:33.054Z,988.64
2018-12-08T09:00:33.088Z,988.63
2018-12-08T09:01:33.025Z,988.66
2018-12-08T09:02:33.013Z,988.60
2018-12-08T09:03:33.001Z,988.44
2018-12-08T09:04:32.989Z,988.70
2018-12-08T09:05:32.975Z,988.63
2018-12-08T09:06:33.163Z,988.69
2018-12-08T09:07:33.002Z,988.79
2018-12-08T09:08:32.936Z,988.71
2018-12-08T09:09:32.926Z,988.78
2018-12-08T09:10:32.910Z,988.84
2018-12-08T09:11:32.897Z,988.83
2018-12-08T09:12:32.886Z,988.81
2018-12-08T09:13:32.871Z,988.80
2018-12-08T09:14:32.858Z,988.76
2018-12-08T09:15:32.847Z,988.85
2018-12-08T09:16:32.833Z,988.87
2018-12-08T09:17:32.820Z,988.78
2018-12-08T09:18:32.808Z,988.78
2018-12-08T09:19:32.797Z,988.72
2018-12-08T09:20:32.783Z,988.76
2018-12-08T09:21:32.770Z,988.80
2018-12-08T09:22:32.758Z,988.86
2018-12-08T09:23:32.745Z,988.89
2018-12-08T09:24:32.735Z,988.77
2018-12-08T09:25:32.720Z,988.70
2018-12-08T09:26:32.758Z,988.74
2018-12-08T09:27:32.694Z,988.81
2018-12-08T09:28:32.684Z,988.86
2018-12-08T09:29:32.670Z,988.87
2018-12-08T09:30:32.657Z,988.72
2018-12-08T09:31:32.649Z,988.86
2018-12-08T09:32:32.635Z,988.82
2018-12-08T09:33:32.619Z,988.83
2018-12-08T09:34:32.606Z,988.85
2018-12-08T09:35:32.598Z,988.90
2018-12-08T09:36:32.584Z,988.82
2018-12-08T09:37:32.576Z,988.87
2018-12-08T09:38:32.759Z,988.81
2018-12-08T09:39:32.544Z,988.83
2018-12-08T09:40:32.533Z,988.70
2018-12-08T09:41:32.570Z,988.86
2018-12-08T09:42:32.507Z,988.78
2018-12-08T09:43:32.496Z,988.71
2018-12-08T09:44:32.483Z,988.87
2018-12-08T09:45:32.480Z,988.73
2018-12-08T09:46:32.462Z,988.78
2018-12-08T09:47:32.451Z,988.73
2018-12-08T09:48:32.435Z,988.74
2018-12-08T09:49:32.426Z,988.73
2018-12-08T09:50:32.409Z,988.76
2018-12-08T09:51:32.400Z,988.66
2018-12-08T09:52:32.385Z,988.68
2018-12-08T09:53:32.372Z,988.69
2018-12-08T09:54:32.363Z,988.69
2018-12-08T09:55:32.357Z,988.61
2018-12-08T09:56:32.337Z,988.53
2018-12-08T09:57:32.323Z,988.77
2018-12-08T09:58:32.317Z,988.76
2018-12-08T09:59:32.302Z,988.83
2018-12-08T10:00:32.299Z,988.73
2018-12-08T10:01:32.281Z,988.71
2018-12-08T10:02:32.269Z,988.68
2018-12-08T10:03:32.252Z,988.84
2018-12-08T10:04:32.244Z,988.73
2018-12-08T10:05:32.228Z,988.72
2018-12-08T10:06:32.215Z,988.88
2018-12-08T10:07:32.794Z,989.01
2018-12-08T10:08:32.195Z,988.84
2018-12-08T10:09:32.180Z,988.89
2018-12-08T10:10:32.172Z,988.74
2018-12-08T10:11:32.155Z,988.82
2018-12-08T10:12:32.146Z,988.80
2018-12-08T10:13:32.138Z,988.71
2018-12-08T10:14:32.119Z,988.73
2018-12-08T10:15:32.112Z,988.79
2018-12-08T10:16:32.096Z,988.83
2018-12-08T10:17:32.083Z,988.82
2018-12-08T10:18:32.163Z,988.88
2018-12-08T10:19:32.060Z,988.47
2018-12-08T10:20:32.051Z,988.84
2018-12-08T10:21:32.044Z,988.86
2018-12-08T10:22:32.030Z,988.86
2018-12-08T10:23:32.015Z,988.82
2018-12-08T10:24:32.054Z,988.84
2018-12-08T10:25:31.990Z,988.80
2018-12-08T10:26:31.981Z,988.85
2018-12-08T10:27:31.967Z,988.84
2018-12-08T10:28:31.955Z,988.87
2018-12-08T10:29:31.948Z,988.84
2018-12-08T10:30:31.940Z,988.93
2018-12-08T10:31:31.919Z,988.89
2018-12-08T10:32:31.908Z,988.98
2018-12-08T10:33:31.904Z,988.94
2018-12-08T10:34:31.888Z,988.90
2018-12-08T10:35:31.873Z,989.07
2018-12-08T10:36:31.863Z,988.67
2018-12-08T10:37:31.850Z,988.90
2018-12-08T10:38:31.844Z,988.79
2018-12-08T10:39:31.826Z,988.83
2018-12-08T10:40:31.816Z,988.89
2018-12-08T10:41:31.803Z,988.87
2018-12-08T10:42:31.793Z,988.80
2018-12-08T10:43:31.785Z,988.84
2018-12-08T10:44:31.775Z,988.84
2018-12-08T10:45:31.762Z,989.05
2018-12-08T10:46:31.746Z,988.87
2018-12-08T10:47:31.738Z,988.97
2018-12-08T10:48:31.725Z,988.98
2018-12-08T10:49:31.717Z,989.00
2018-12-08T10:50:31.706Z,988.92
2018-12-08T10:51:31.686Z,989.01
2018-12-08T10:52:31.675Z,988.88
2018-12-08T10:53:31.662Z,988.93
2018-12-08T10:54:31.651Z,988.95
2018-12-08T10:55:31.640Z,988.94
2018-12-08T10:56:31.628Z,989.07
2018-12-08T10:57:31.671Z,988.89
2018-12-08T10:58:31.607Z,988.87
2018-12-08T10:59:31.597Z,988.88
2018-12-08T11:00:31.584Z,988.93
2018-12-08T11:01:31.569Z,988.88
2018-12-08T11:02:31.558Z,989.00
2018-12-08T11:03:31.548Z,988.98
2018-12-08T11:04:31.536Z,988.98
2018-12-08T11:05:31.529Z,988.95
2018-12-08T11:06:31.516Z,988.99
2018-12-08T11:07:31.503Z,988.96
2018-12-08T11:08:31.495Z,988.95
2018-12-08T11:09:31.480Z,989.00
2018-12-08T11:10:31.465Z,988.94
2018-12-08T11:11:31.658Z,988.94
2018-12-08T11:12:31.442Z,988.97
2018-12-08T11:13:31.430Z,988.89
2018-12-08T11:14:31.417Z,988.86
2018-12-08T11:15:31.406Z,988.90
2018-12-08T11:16:31.394Z,988.92
2018-12-08T11:17:31.382Z,989.02
2018-12-08T11:18:31.376Z,989.03
2018-12-08T11:19:31.359Z,988.98
2018-12-08T11:20:31.348Z,988.99
2018-12-08T11:21:31.336Z,988.97
2018-12-08T11:22:31.379Z,989.02
2018-12-08T11:23:31.312Z,988.95
2018-12-08T11:24:31.300Z,988.95
2018-12-08T11:25:31.288Z,988.97
2018-12-08T11:26:31.278Z,989.08
2018-12-08T11:27:31.270Z,988.97
2018-12-08T11:28:31.259Z,989.08
2018-12-08T11:29:31.241Z,989.05
2018-12-08T11:30:31.472Z,989.01
2018-12-08T11:31:31.218Z,989.11
2018-12-08T11:32:31.256Z,989.05
2018-12-08T11:33:31.196Z,989.07
2018-12-08T11:34:31.186Z,989.18
2018-12-08T11:35:31.171Z,989.10
2018-12-08T11:36:31.158Z,989.05
2018-12-08T11:37:31.145Z,989.09
2018-12-08T11:38:31.138Z,988.98
2018-12-08T11:39:31.122Z,988.83
2018-12-08T11:40:31.110Z,988.99
2018-12-08T11:41:31.098Z,988.94
2018-12-08T11:42:31.090Z,988.90
2018-12-08T11:43:31.073Z,989.06
2018-12-08T11:44:31.067Z,988.96
2018-12-08T11:45:31.047Z,988.91
2018-12-08T11:46:31.039Z,988.84
2018-12-08T11:47:31.025Z,988.89
2018-12-08T11:48:31.062Z,988.81
2018-12-08T11:49:31.001Z,988.88
2018-12-08T11:50:30.988Z,988.67
2018-12-08T11:51:30.975Z,988.79
2018-12-08T11:52:30.963Z,988.90
2018-12-08T11:53:30.954Z,988.85
2018-12-08T11:54:30.939Z,988.92
2018-12-08T11:55:30.927Z,988.89
2018-12-08T11:56:30.915Z,988.83
2018-12-08T11:57:30.903Z,988.75
2018-12-08T11:58:30.890Z,988.85
2018-12-08T11:59:30.880Z,988.83
2018-12-08T12:00:30.868Z,988.86
2018-12-08T12:01:30.856Z,988.88
2018-12-08T12:02:30.846Z,988.86
2018-12-08T12:03:30.831Z,988.78
2018-12-08T12:04:30.820Z,988.87
2018-12-08T12:05:30.810Z,988.79
2018-12-08T12:06:30.796Z,988.77
2018-12-08T12:07:30.787Z,988.92
2018-12-08T12:08:30.773Z,988.74
2018-12-08T12:09:30.761Z,988.76
2018-12-08T12:10:30.751Z,988.87
2018-12-08T12:11:30.742Z,988.81
2018-12-08T12:12:30.730Z,988.74
2018-12-08T12:13:30.714Z,988.78
2018-12-08T12:14:30.702Z,988.78
2018-12-08T12:15:30.694Z,988.76
2018-12-08T12:16:30.682Z,988.79
2018-12-08T12:17:30.673Z,988.77
2018-12-08T12:18:30.660Z,988.80
2018-12-08T12:19:30.646Z,988.83
2018-12-08T12:20:30.706Z,988.79
2018-12-08T12:21:30.626Z,988.73
2018-12-08T12:22:30.612Z,988.69
2018-12-08T12:23:30.599Z,988.65
2018-12-08T12:24:30.594Z,988.76
2018-12-08T12:25:30.575Z,988.65
2018-12-08T12:26:30.564Z,988.68
2018-12-08T12:27:30.554Z,988.55
2018-12-08T12:28:30.543Z,988.59
2018-12-08T12:29:30.529Z,988.64